Detall de PIREP

Printer-friendly versionPDF version

[2014/03/29 10:41:00]
Flight IATA:CT3116
Pilot Number:012
Company ICAO:CAT
Aircraft Type:A343/E
PAX:295
Departing Airport: LEBL
Destination Airport: LEZG
Alternate Airport:LEMD
Online: VATSIM
Route:LOBAR
Flight Level:F230
No Slew and time accel
No pause
Crash detect
Detect pilot in Cockpit between each 30 and 45 minutes
10:41 Zero fuel Weight: 322846 Lbs, Fuel Weight: 25595 Lbs
10:41 VATSIM:LEBL 291000Z 05022KT 9999 SCT024 15/09 Q1013 NOSIG
10:41 VATSIM:LEZG 291000Z 10017KT 9999 BKN044 13/03 Q1009
10:42 Parking Brakes off
10:46 Take-off
10:46 Take off Weight: 346574 Lbs
10:46 Wind: 049º @ 022 Knots Heading: 064º
10:46 POS N41º 17´ 13´´ E002º 05´ 16´´
10:46 Gear Up: 200 Knots
10:46 Flaps:3 at 200 Knots
10:47 Flaps:1 at 209 Knots
10:47 Flaps:0 at 220 Knots
10:51 TOC
10:51 Fuel Weight: 20201 Lb
11:01 Wind:189º@046 Knots Heading: 266º Ground Speed: 404 Knots Altitude 22972 ft
11:06 TOD
11:06 Fuel Weight: 16453 Lb
11:16 Wind:139º@030 Knots Heading: 268º Ground Speed: 298 Knots Altitude 8599 ft
11:21 Gear Down: 206 Knots
11:21 Flaps:1 at 207 Knots
11:22 Flaps:3 at 156 Knots
11:22 Flaps:4 at 156 Knots
11:22 Flaps:5 at 146 Knots
11:27 TouchDown:Rate -230 ft/min Speed: 138 Knots
11:27 VATSIM:LEZG 291100Z 10017KT 070V130 9999 BKN044 13/04 Q1009
11:27 Land
11:27 Wind:121º@011 Knots
11:27 Heading: 119º
11:27 Flight Duration: 00:41
11:27 Landing Weight: 336650 Lbs
11:27 POS N41º 39´ 49´´ W001º 01´ 40´´
11:28 Parking brakes on
11:28 Block to Block Duration: 00:47
11:28 Final Fuel: 13511 Lbls
11:28 Spent Fuel: 12083 Lbls
11:28 Flight Length: 216 NM
11:28 TOD Land Length: 89 NM

Exportar CSV

Powered by Drupal - Modified by Danger4k